Погода Доронубна 2 недели

Республика Дагестан, Россия

13 - 26 июля
  • 13июля
    Сегодня
    +16°
    +25°
    Небольшая облачность
    ВремяПогодаТемператураВлажностьДавлениеВетер, м/сВероятность осадков
    00:00Практически безоблачно+19°C90 %649 мм0.7 м/с6 %
    03:00Ясно и безоблачно+18°C85 %649 мм0.6 м/с6 %
    06:00Ясно и безоблачно+19°C78 %649 мм0.6 м/с2 %
    09:00Ясно и безоблачно+23°C60 %649 мм1.8 м/с4 %
    12:00Облачно с прояснениями+24°C55 %649 мм2.6 м/с16 %
    15:00Небольшая облачность+25°C62 %649 мм2.7 м/с18 %
    18:00Практически безоблачно+22°C71 %649 мм0.9 м/с11 %
    21:00Ясно и безоблачно+18°C90 %648 мм0.6 м/с2 %
  • 14июля
    Воскресенье
    +16°
    +26°
    Практически безоблачно
    ВремяПогодаТемператураВлажностьДавлениеВетер, м/сВероятность осадков
    00:00Ясно и безоблачно+17°C90 %648 мм0.7 м/с3 %
    03:00Практически безоблачно+17°C88 %648 мм0.6 м/с2 %
    06:00Практически безоблачно+19°C85 %648 мм0.5 м/с2 %
    09:00Ясно и безоблачно+22°C59 %649 мм1.7 м/с3 %
    12:00Ясно и безоблачно+25°C49 %649 мм2.7 м/с6 %
    15:00Практически безоблачно+25°C45 %649 мм2.7 м/с7 %
    18:00Практически безоблачно+22°C54 %649 мм1.0 м/с4 %
    21:00Небольшая облачность+17°C77 %648 мм0.7 м/с3 %
  • 15июля
    Понедельник
    +17°
    +26°
    Ясно и безоблачно
    ВремяПогодаТемператураВлажностьДавлениеВетер, м/сВероятность осадков
    00:00Практически безоблачно+16°C75 %648 мм0.6 м/с3 %
    03:00Ясно и безоблачно+17°C70 %648 мм0.6 м/с3 %
    06:00Ясно и безоблачно+18°C65 %648 мм0.7 м/с2 %
    09:00Ясно и безоблачно+22°C45 %649 мм1.5 м/с2 %
    12:00Практически безоблачно+24°C45 %650 мм2.4 м/с7 %
    15:00Ясно и безоблачно+26°C45 %651 мм2.3 м/с9 %
    18:00Ясно и безоблачно+22°C61 %650 мм1.4 м/с4 %
    21:00Ясно и безоблачно+17°C82 %650 мм0.3 м/с2 %
  • 16июля
    Вторник
    +18°
    +26°
    Облачно с прояснениями
    ВремяПогодаТемператураВлажностьДавлениеВетер, м/сВероятность осадков
    00:00Ясно и безоблачно+18°C82 %650 мм0.7 м/с2 %
    03:00Ясно и безоблачно+19°C86 %650 мм1.2 м/с2 %
    06:00Ясно и безоблачно+19°C81 %650 мм1.0 м/с2 %
    09:00Облачно с прояснениями+23°C49 %651 мм1.5 м/с2 %
    12:00Небольшая облачность+25°C50 %652 мм2.5 м/с23 %
    15:00Облачно с прояснениями+26°C51 %652 мм1.1 м/с38 %
    18:00Небольшая облачность+24°C71 %652 мм1.4 м/с31 %
    21:00Небольшая облачность+20°C93 %651 мм0.9 м/с8 %
  • 17июля
    Среда
    +18°
    +25°
    Пасмурно, ливень
    ВремяПогодаТемператураВлажностьДавлениеВетер, м/сВероятность осадков
    00:00Облачно с прояснениями+20°C90 %651 мм0.7 м/с5 %
    03:00Облачно с прояснениями+21°C84 %651 мм0.7 м/с3 %
    06:00Практически безоблачно+20°C85 %651 мм0.6 м/с2 %
    09:00Небольшая облачность+23°C56 %652 мм1.9 м/с15 %
    12:00Облачно с прояснениями, небольшой дождь+24°C55 %652 мм2.2 м/с64 %
    15:00Пасмурно, ливень+22°C72 %652 мм0.7 м/с74 %
    18:00Небольшая облачность и лёгкий дождик+20°C71 %651 мм0.4 м/с61 %
    21:00Небольшая облачность+19°C88 %651 мм0.9 м/с22 %
Мы используем cookies
Соглашаюсь